createdAt,value
2018-01-18T00:00:46.852Z,944.03
2018-01-18T00:01:46.826Z,944.02
2018-01-18T00:02:46.807Z,943.94
2018-01-18T00:03:46.849Z,944.01
2018-01-18T00:04:46.770Z,944.05
2018-01-18T00:05:46.750Z,944.07
2018-01-18T00:06:46.730Z,944.01
2018-01-18T00:07:46.731Z,943.96
2018-01-18T00:08:46.693Z,944.02
2018-01-18T00:09:46.673Z,944.03
2018-01-18T00:10:46.655Z,943.97
2018-01-18T00:11:46.636Z,944.04
2018-01-18T00:12:46.616Z,943.92
2018-01-18T00:13:46.596Z,943.92
2018-01-18T00:14:46.578Z,943.92
2018-01-18T00:15:46.558Z,943.95
2018-01-18T00:16:46.547Z,943.94
2018-01-18T00:17:46.520Z,943.96
2018-01-18T00:18:46.501Z,943.96
2018-01-18T00:19:46.482Z,943.91
2018-01-18T00:20:46.461Z,943.91
2018-01-18T00:21:46.443Z,943.87
2018-01-18T00:22:46.424Z,943.81
2018-01-18T00:23:46.404Z,943.83
2018-01-18T00:24:46.391Z,943.9
2018-01-18T00:25:46.387Z,943.91
2018-01-18T00:26:46.347Z,943.96
2018-01-18T00:27:46.326Z,943.94
2018-01-18T00:28:46.308Z,943.94
2018-01-18T00:29:46.289Z,943.99
2018-01-18T00:30:46.269Z,944.05
2018-01-18T00:31:46.249Z,944.02
2018-01-18T00:32:46.244Z,944.01
2018-01-18T00:33:46.212Z,944.01
2018-01-18T00:34:46.191Z,944.06
2018-01-18T00:35:46.173Z,944.03
2018-01-18T00:36:46.161Z,944.08
2018-01-18T00:37:46.135Z,944.04
2018-01-18T00:38:46.114Z,944.06
2018-01-18T00:39:46.096Z,944.09
2018-01-18T00:40:46.075Z,943.98
2018-01-18T00:41:46.057Z,944.06
2018-01-18T00:42:46.040Z,944.13
2018-01-18T00:43:46.019Z,944.15
2018-01-18T00:44:46.001Z,944.14
2018-01-18T00:45:45.981Z,944.2
2018-01-18T00:46:45.962Z,944.15
2018-01-18T00:47:45.943Z,944.12
2018-01-18T00:48:45.925Z,944.18
2018-01-18T00:49:45.923Z,944.2
2018-01-18T00:50:45.885Z,944.12
2018-01-18T00:51:45.915Z,944.12
2018-01-18T00:52:45.847Z,944.1
2018-01-18T00:53:45.828Z,944.1
2018-01-18T00:54:45.808Z,944.03
2018-01-18T00:55:45.790Z,944.08
2018-01-18T00:56:45.771Z,944.09
2018-01-18T00:57:45.752Z,944.12
2018-01-18T00:58:45.732Z,944.1
2018-01-18T00:59:45.714Z,944.15
2018-01-18T01:00:45.697Z,944.1
2018-01-18T01:01:45.676Z,944.08
2018-01-18T01:02:45.656Z,944.05
2018-01-18T01:03:45.636Z,944.08
2018-01-18T01:04:45.618Z,944.06
2018-01-18T01:05:45.598Z,944.04
2018-01-18T01:06:45.580Z,944.02
2018-01-18T01:07:45.561Z,944.03
2018-01-18T01:08:45.544Z,944.07
2018-01-18T01:09:45.523Z,944.04
2018-01-18T01:10:45.504Z,944.1
2018-01-18T01:11:45.484Z,944.08
2018-01-18T01:12:45.469Z,944.04
2018-01-18T01:13:45.446Z,943.96
2018-01-18T01:14:45.427Z,944.02
2018-01-18T01:15:45.408Z,943.98
2018-01-18T01:16:45.390Z,943.99
2018-01-18T01:17:45.381Z,944.03
2018-01-18T01:18:45.353Z,944.05
2018-01-18T01:19:45.333Z,944.05
2018-01-18T01:20:45.314Z,944.02
2018-01-18T01:21:45.296Z,944.04
2018-01-18T01:22:45.275Z,944.01
2018-01-18T01:23:45.257Z,943.94
2018-01-18T01:24:45.238Z,943.95
2018-01-18T01:25:45.218Z,943.88
2018-01-18T01:26:45.199Z,943.93
2018-01-18T01:27:45.181Z,944.02
2018-01-18T01:28:45.164Z,943.93
2018-01-18T01:29:45.147Z,943.91
2018-01-18T01:30:45.123Z,943.91
2018-01-18T01:31:45.106Z,943.92
2018-01-18T01:32:45.090Z,943.91
2018-01-18T01:33:45.073Z,943.77
2018-01-18T01:34:45.049Z,943.89
2018-01-18T01:35:45.030Z,943.91
2018-01-18T01:36:45.012Z,943.96
2018-01-18T01:37:44.991Z,943.77
2018-01-18T01:38:44.972Z,943.83
2018-01-18T01:39:44.954Z,943.87
2018-01-18T01:40:44.934Z,943.96
2018-01-18T01:41:44.914Z,943.97
2018-01-18T01:42:44.896Z,943.92
2018-01-18T01:43:44.878Z,943.9
2018-01-18T01:44:44.858Z,943.92
2018-01-18T01:45:44.840Z,944.02
2018-01-18T01:46:44.821Z,944.03
2018-01-18T01:47:44.802Z,943.99
2018-01-18T01:48:44.785Z,943.95
2018-01-18T01:49:44.765Z,943.92
2018-01-18T01:50:44.745Z,943.98
2018-01-18T01:51:44.726Z,943.91
2018-01-18T01:52:44.707Z,943.88
2018-01-18T01:53:44.688Z,943.92
2018-01-18T01:54:44.671Z,943.92
2018-01-18T01:55:44.651Z,943.91
2018-01-18T01:56:44.632Z,943.89
2018-01-18T01:57:44.613Z,943.95
2018-01-18T01:58:44.594Z,943.94
2018-01-18T01:59:44.575Z,943.94
2018-01-18T02:00:44.557Z,943.91
2018-01-18T02:01:44.538Z,943.86
2018-01-18T02:02:44.518Z,943.88
2018-01-18T02:03:44.500Z,943.77
2018-01-18T02:04:44.481Z,943.85
2018-01-18T02:05:44.463Z,943.83
2018-01-18T02:06:44.443Z,943.74
2018-01-18T02:07:44.426Z,943.75
2018-01-18T02:08:44.406Z,943.76
2018-01-18T02:09:44.387Z,943.76
2018-01-18T02:10:44.368Z,943.73
2018-01-18T02:11:44.349Z,943.78
2018-01-18T02:12:44.330Z,943.74
2018-01-18T02:13:44.311Z,943.74
2018-01-18T02:14:44.291Z,943.75
2018-01-18T02:15:44.274Z,943.72
2018-01-18T02:16:44.256Z,943.73
2018-01-18T02:17:44.235Z,943.82
2018-01-18T02:18:44.219Z,943.88
2018-01-18T02:19:44.210Z,943.85
2018-01-18T02:20:44.180Z,943.83
2018-01-18T02:21:44.162Z,943.83
2018-01-18T02:22:44.147Z,943.81
2018-01-18T02:23:44.125Z,943.81
2018-01-18T02:24:44.105Z,943.87
2018-01-18T02:25:44.086Z,943.88
2018-01-18T02:26:44.068Z,943.87
2018-01-18T02:27:44.049Z,943.86
2018-01-18T02:28:44.034Z,943.81
2018-01-18T02:29:44.011Z,943.8
2018-01-18T02:30:43.993Z,943.85
2018-01-18T02:31:43.973Z,943.88
2018-01-18T02:32:43.957Z,943.93
2018-01-18T02:33:43.936Z,943.89
2018-01-18T02:34:43.918Z,943.86
2018-01-18T02:35:43.898Z,943.85
2018-01-18T02:36:43.881Z,943.85
2018-01-18T02:37:43.861Z,943.75
2018-01-18T02:38:43.842Z,943.79
2018-01-18T02:39:43.823Z,943.81
2018-01-18T02:40:43.808Z,943.81
2018-01-18T02:41:43.787Z,943.76
2018-01-18T02:42:43.767Z,943.8
2018-01-18T02:43:43.750Z,943.76
2018-01-18T02:44:43.750Z,943.74
2018-01-18T02:45:43.711Z,943.76
2018-01-18T02:46:43.700Z,943.74
2018-01-18T02:47:43.674Z,943.68
2018-01-18T02:48:43.668Z,943.68
2018-01-18T02:49:43.636Z,943.67
2018-01-18T02:50:43.616Z,943.63
2018-01-18T02:51:43.599Z,943.56
2018-01-18T02:52:43.580Z,943.55
2018-01-18T02:53:43.561Z,943.55
2018-01-18T02:54:43.543Z,943.64
2018-01-18T02:55:43.524Z,943.6
2018-01-18T02:56:43.521Z,943.62
2018-01-18T02:57:43.485Z,943.6
2018-01-18T02:58:43.468Z,943.68
2018-01-18T02:59:43.450Z,943.58
2018-01-18T03:00:43.430Z,943.61
2018-01-18T03:01:43.412Z,943.52
2018-01-18T03:02:43.393Z,943.59
2018-01-18T03:03:43.376Z,943.6
2018-01-18T03:04:43.354Z,943.54
2018-01-18T03:05:43.337Z,943.51
2018-01-18T03:06:43.318Z,943.52
2018-01-18T03:07:43.300Z,943.51
2018-01-18T03:08:43.281Z,943.45
2018-01-18T03:09:43.263Z,943.46
2018-01-18T03:10:43.245Z,943.44
2018-01-18T03:11:43.225Z,943.4
2018-01-18T03:12:43.209Z,943.4
2018-01-18T03:13:43.188Z,943.37
2018-01-18T03:14:43.170Z,943.43
2018-01-18T03:15:43.151Z,943.36
2018-01-18T03:16:43.132Z,943.33
2018-01-18T03:17:43.114Z,943.34
2018-01-18T03:18:43.094Z,943.2
2018-01-18T03:19:43.076Z,943.28
2018-01-18T03:20:43.058Z,943.23
2018-01-18T03:21:43.040Z,943.23
2018-01-18T03:22:43.020Z,943.19
2018-01-18T03:23:43.002Z,943.2
2018-01-18T03:24:42.988Z,943.12
2018-01-18T03:25:42.965Z,943.11
2018-01-18T03:26:42.946Z,943.1
2018-01-18T03:27:42.936Z,943.11
2018-01-18T03:28:42.909Z,943.12
2018-01-18T03:29:42.889Z,943.08
2018-01-18T03:30:42.872Z,943.09
2018-01-18T03:31:42.859Z,943.04
2018-01-18T03:32:42.835Z,943.04
2018-01-18T03:33:42.816Z,943.04
2018-01-18T03:34:42.798Z,943.04
2018-01-18T03:35:42.778Z,943.06
2018-01-18T03:36:42.760Z,943.11
2018-01-18T03:37:42.742Z,943.08
2018-01-18T03:38:42.722Z,943.04
2018-01-18T03:39:42.702Z,943.05
2018-01-18T03:40:42.686Z,943.01
2018-01-18T03:41:42.669Z,943.04
2018-01-18T03:42:42.652Z,943.02
2018-01-18T03:43:42.629Z,943
2018-01-18T03:44:42.610Z,943.03
2018-01-18T03:45:42.591Z,942.97
2018-01-18T03:46:42.573Z,942.94
2018-01-18T03:47:42.564Z,942.95
2018-01-18T03:48:42.538Z,942.86
2018-01-18T03:49:42.517Z,942.87
2018-01-18T03:50:42.498Z,942.84
2018-01-18T03:51:42.480Z,942.82
2018-01-18T03:52:42.472Z,942.76
2018-01-18T03:53:42.442Z,942.81
2018-01-18T03:54:42.424Z,942.85
2018-01-18T03:55:42.405Z,942.8
2018-01-18T03:56:42.387Z,942.78
2018-01-18T03:57:42.388Z,942.75
2018-01-18T03:58:42.350Z,942.78
2018-01-18T03:59:42.344Z,942.85
2018-01-18T04:00:42.311Z,942.72
2018-01-18T04:01:42.293Z,942.69
2018-01-18T04:02:42.274Z,942.77
2018-01-18T04:03:42.256Z,942.75
2018-01-18T04:04:42.237Z,942.64
2018-01-18T04:05:42.237Z,942.57
2018-01-18T04:06:42.199Z,942.72
2018-01-18T04:07:42.181Z,942.73
2018-01-18T04:08:42.162Z,942.71
2018-01-18T04:09:42.143Z,942.76
2018-01-18T04:10:42.124Z,942.7
2018-01-18T04:11:42.106Z,942.66
2018-01-18T04:12:42.090Z,942.72
2018-01-18T04:13:42.069Z,942.67
2018-01-18T04:14:42.053Z,942.66
2018-01-18T04:15:42.033Z,942.67
2018-01-18T04:16:42.013Z,942.67
2018-01-18T04:17:41.993Z,942.62
2018-01-18T04:18:41.974Z,942.63
2018-01-18T04:19:41.965Z,942.65
2018-01-18T04:20:41.939Z,942.57
2018-01-18T04:21:41.928Z,942.6
2018-01-18T04:22:41.900Z,942.65
2018-01-18T04:23:41.882Z,942.55
2018-01-18T04:24:41.865Z,942.58
2018-01-18T04:25:41.856Z,942.63
2018-01-18T04:26:41.829Z,942.67
2018-01-18T04:27:41.812Z,942.52
2018-01-18T04:28:41.788Z,942.49
2018-01-18T04:29:41.771Z,942.45
2018-01-18T04:30:41.751Z,942.53
2018-01-18T04:31:41.734Z,942.43
2018-01-18T04:32:41.713Z,942.46
2018-01-18T04:33:41.694Z,942.41
2018-01-18T04:34:41.676Z,942.39
2018-01-18T04:35:41.656Z,942.44
2018-01-18T04:36:41.638Z,942.45
2018-01-18T04:37:41.620Z,942.35
2018-01-18T04:38:41.601Z,942.4
2018-01-18T04:39:41.582Z,942.34
2018-01-18T04:40:41.563Z,942.28
2018-01-18T04:41:41.546Z,942.3
2018-01-18T04:42:41.526Z,942.32
2018-01-18T04:43:41.508Z,942.29
2018-01-18T04:44:41.492Z,942.29
2018-01-18T04:45:41.470Z,942.21
2018-01-18T04:46:41.455Z,942.22
2018-01-18T04:47:41.433Z,942.29
2018-01-18T04:48:41.427Z,942.2
2018-01-18T04:49:41.396Z,942.14
2018-01-18T04:50:41.377Z,942.19
2018-01-18T04:51:41.360Z,942.12
2018-01-18T04:52:41.344Z,942.11
2018-01-18T04:53:41.322Z,942.05
2018-01-18T04:54:41.302Z,942.08
2018-01-18T04:55:41.284Z,942.02
2018-01-18T04:56:41.266Z,942
2018-01-18T04:57:41.246Z,941.97
2018-01-18T04:58:41.228Z,941.95
2018-01-18T04:59:41.210Z,941.95
2018-01-18T05:00:41.191Z,941.88
2018-01-18T05:01:41.183Z,941.87
2018-01-18T05:02:41.157Z,941.8
2018-01-18T05:03:41.139Z,941.88
2018-01-18T05:04:41.120Z,941.82
2018-01-18T05:05:41.097Z,941.81
2018-01-18T05:06:41.081Z,941.84
2018-01-18T05:07:41.061Z,941.87
2018-01-18T05:08:41.042Z,941.81
2018-01-18T05:09:41.023Z,941.82
2018-01-18T05:10:41.005Z,941.79
2018-01-18T05:11:40.987Z,941.72
2018-01-18T05:12:40.974Z,941.74
2018-01-18T05:13:40.949Z,941.71
2018-01-18T05:14:40.931Z,941.69
2018-01-18T05:15:40.912Z,941.63
2018-01-18T05:16:40.893Z,941.62
2018-01-18T05:17:40.892Z,941.59
2018-01-18T05:18:40.860Z,941.48
2018-01-18T05:19:40.842Z,941.45
2018-01-18T05:20:40.840Z,941.4
2018-01-18T05:21:40.833Z,941.45
2018-01-18T05:22:40.783Z,941.38
2018-01-18T05:23:40.764Z,941.37
2018-01-18T05:24:40.744Z,941.35
2018-01-18T05:25:40.741Z,941.36
2018-01-18T05:26:40.709Z,941.34
2018-01-18T05:27:40.691Z,941.29
2018-01-18T05:28:40.672Z,941.22
2018-01-18T05:29:40.654Z,941.26
2018-01-18T05:30:40.634Z,941.21
2018-01-18T05:31:40.676Z,941.11
2018-01-18T05:32:40.599Z,941.15
2018-01-18T05:33:40.580Z,941.12
2018-01-18T05:34:40.562Z,941.14
2018-01-18T05:35:40.543Z,941.11
2018-01-18T05:36:40.527Z,941.07
2018-01-18T05:37:40.506Z,941.06
2018-01-18T05:38:40.507Z,941.08
2018-01-18T05:39:40.469Z,941.02
2018-01-18T05:40:40.452Z,941.04
2018-01-18T05:41:40.432Z,940.99
2018-01-18T05:42:40.415Z,940.98
2018-01-18T05:43:40.397Z,940.93
2018-01-18T05:44:40.377Z,940.92
2018-01-18T05:45:40.357Z,940.83
2018-01-18T05:46:40.347Z,940.85
2018-01-18T05:47:40.322Z,940.8
2018-01-18T05:48:40.302Z,940.75
2018-01-18T05:49:40.284Z,940.73
2018-01-18T05:50:40.266Z,940.64
2018-01-18T05:51:40.247Z,940.56
2018-01-18T05:52:40.229Z,940.59
2018-01-18T05:53:40.213Z,940.49
2018-01-18T05:54:40.194Z,940.35
2018-01-18T05:55:40.174Z,940.38
2018-01-18T05:56:40.155Z,940.38
2018-01-18T05:57:40.136Z,940.33
2018-01-18T05:58:40.118Z,940.33
2018-01-18T05:59:40.104Z,940.35
2018-01-18T06:00:40.092Z,940.34
2018-01-18T06:01:40.064Z,940.32
2018-01-18T06:02:40.045Z,940.26
2018-01-18T06:03:40.026Z,940.27
2018-01-18T06:04:40.046Z,940.3
2018-01-18T06:05:39.990Z,940.3
2018-01-18T06:06:39.971Z,940.2
2018-01-18T06:07:39.966Z,940.24
2018-01-18T06:08:39.934Z,940.19
2018-01-18T06:09:39.916Z,940.24
2018-01-18T06:10:39.897Z,940.09
2018-01-18T06:11:39.878Z,940.1
2018-01-18T06:12:39.860Z,940.05
2018-01-18T06:13:39.844Z,940.03
2018-01-18T06:14:39.828Z,940
2018-01-18T06:15:39.805Z,939.97
2018-01-18T06:16:39.789Z,939.88
2018-01-18T06:17:39.770Z,939.85
2018-01-18T06:18:39.749Z,939.79
2018-01-18T06:19:39.732Z,939.76
2018-01-18T06:20:39.714Z,939.78
2018-01-18T06:21:39.694Z,939.71
2018-01-18T06:22:39.676Z,939.63
2018-01-18T06:23:39.657Z,939.59
2018-01-18T06:24:39.648Z,939.53
2018-01-18T06:25:39.620Z,939.59
2018-01-18T06:26:39.602Z,939.58
2018-01-18T06:27:39.585Z,939.49
2018-01-18T06:28:39.570Z,939.45
2018-01-18T06:29:39.545Z,939.33
2018-01-18T06:30:39.529Z,939.3
2018-01-18T06:31:39.510Z,939.25
2018-01-18T06:32:39.490Z,939.17
2018-01-18T06:33:39.472Z,939.21
2018-01-18T06:34:39.454Z,939.17
2018-01-18T06:35:39.436Z,939.09
2018-01-18T06:36:39.417Z,939.09
2018-01-18T06:37:39.399Z,939.05
2018-01-18T06:38:39.383Z,938.96
2018-01-18T06:39:39.362Z,938.99
2018-01-18T06:40:39.343Z,939.01
2018-01-18T06:41:39.327Z,938.99
2018-01-18T06:42:39.307Z,939.05
2018-01-18T06:43:39.301Z,938.87
2018-01-18T06:44:39.269Z,938.87
2018-01-18T06:45:39.251Z,938.91
2018-01-18T06:46:39.233Z,938.83
2018-01-18T06:47:39.214Z,938.83
2018-01-18T06:48:39.196Z,938.84
2018-01-18T06:49:39.197Z,938.68
2018-01-18T06:50:39.160Z,938.79
2018-01-18T06:51:39.141Z,938.79
2018-01-18T06:52:39.125Z,938.74
2018-01-18T06:53:39.118Z,938.72
2018-01-18T06:54:39.084Z,938.71
2018-01-18T06:55:39.066Z,938.6
2018-01-18T06:56:39.052Z,938.57
2018-01-18T06:57:39.031Z,938.53
2018-01-18T06:58:39.012Z,938.51
2018-01-18T06:59:38.992Z,938.45
2018-01-18T07:00:38.974Z,938.44
2018-01-18T07:01:38.958Z,938.46
2018-01-18T07:02:38.939Z,938.42
2018-01-18T07:03:38.920Z,938.44
2018-01-18T07:04:38.902Z,938.33
2018-01-18T07:05:38.883Z,938.35
2018-01-18T07:06:38.866Z,938.31
2018-01-18T07:07:38.847Z,938.32
2018-01-18T07:08:38.829Z,938.24
2018-01-18T07:09:38.810Z,938.17
2018-01-18T07:10:38.803Z,938.12
2018-01-18T07:11:38.774Z,938.1
2018-01-18T07:12:38.754Z,938.1
2018-01-18T07:13:38.736Z,938.03
2018-01-18T07:14:38.723Z,938.02
2018-01-18T07:15:38.700Z,938
2018-01-18T07:16:38.680Z,937.92
2018-01-18T07:17:38.662Z,937.93
2018-01-18T07:18:38.696Z,938.01
2018-01-18T07:19:38.625Z,938.01
2018-01-18T07:20:38.607Z,937.98
2018-01-18T07:21:38.592Z,937.85
2018-01-18T07:22:38.573Z,937.86
2018-01-18T07:23:38.551Z,937.75
2018-01-18T07:24:38.534Z,937.8
2018-01-18T07:25:38.515Z,937.8
2018-01-18T07:26:38.498Z,937.71
2018-01-18T07:27:38.482Z,937.7
2018-01-18T07:28:38.461Z,937.59
2018-01-18T07:29:38.442Z,937.57
2018-01-18T07:30:38.428Z,937.45
2018-01-18T07:31:38.405Z,937.4
2018-01-18T07:32:38.388Z,937.34
2018-01-18T07:33:38.370Z,937.28
2018-01-18T07:34:38.350Z,937.27
2018-01-18T07:35:38.333Z,937.2
2018-01-18T07:36:38.315Z,937.24
2018-01-18T07:37:38.297Z,937.16
2018-01-18T07:38:38.296Z,937.08
2018-01-18T07:39:38.260Z,937.1
2018-01-18T07:40:38.242Z,937.11
2018-01-18T07:41:38.224Z,936.98
2018-01-18T07:42:38.205Z,937.09
2018-01-18T07:43:38.188Z,936.97
2018-01-18T07:44:38.169Z,936.97
2018-01-18T07:45:38.149Z,936.92
2018-01-18T07:46:38.136Z,937.01
2018-01-18T07:47:38.114Z,936.83
2018-01-18T07:48:38.096Z,936.83
2018-01-18T07:49:38.076Z,936.68
2018-01-18T07:50:38.058Z,936.79
2018-01-18T07:51:38.044Z,936.76
2018-01-18T07:52:38.023Z,936.69
2018-01-18T07:53:38.004Z,936.63
2018-01-18T07:54:37.990Z,936.66
2018-01-18T07:55:37.968Z,936.58
2018-01-18T07:56:37.949Z,936.57
2018-01-18T07:57:37.931Z,936.46
2018-01-18T07:58:37.915Z,936.43
2018-01-18T07:59:37.913Z,936.35
2018-01-18T08:00:37.877Z,936.45
2018-01-18T08:01:37.859Z,936.35
2018-01-18T08:02:37.841Z,936.25
2018-01-18T08:03:37.822Z,936.23
2018-01-18T08:04:37.804Z,936.12
2018-01-18T08:05:37.786Z,936.01
2018-01-18T08:06:37.768Z,936.09
2018-01-18T08:07:37.763Z,936
2018-01-18T08:08:37.731Z,935.96
2018-01-18T08:09:37.723Z,935.91
2018-01-18T08:10:37.695Z,935.97
2018-01-18T08:11:37.680Z,935.83
2018-01-18T08:12:37.667Z,935.76
2018-01-18T08:13:37.645Z,935.59
2018-01-18T08:14:37.622Z,935.67
2018-01-18T08:15:37.605Z,935.47
2018-01-18T08:16:37.586Z,935.52
2018-01-18T08:17:37.567Z,935.55
2018-01-18T08:18:37.549Z,935.63
2018-01-18T08:19:37.531Z,935.42
2018-01-18T08:20:37.513Z,935.39
2018-01-18T08:21:37.494Z,935.43
2018-01-18T08:22:37.476Z,935.36
2018-01-18T08:23:37.458Z,935.29
2018-01-18T08:24:37.440Z,935.3
2018-01-18T08:25:37.426Z,935.25
2018-01-18T08:26:37.417Z,935.15
2018-01-18T08:27:37.385Z,935
2018-01-18T08:28:37.367Z,935.17
2018-01-18T08:29:37.348Z,935
2018-01-18T08:30:37.330Z,934.98
2018-01-18T08:31:37.313Z,934.86
2018-01-18T08:32:38.445Z,934.78
2018-01-18T08:33:37.276Z,934.76
2018-01-18T08:34:37.258Z,934.68
2018-01-18T08:35:37.239Z,934.57
2018-01-18T08:36:37.223Z,934.62
2018-01-18T08:37:37.206Z,934.55
2018-01-18T08:38:37.194Z,934.47
2018-01-18T08:39:37.168Z,934.47
2018-01-18T08:40:37.149Z,934.18
2018-01-18T08:41:37.131Z,934.27
2018-01-18T08:42:37.120Z,934.26
2018-01-18T08:43:37.118Z,934.16
2018-01-18T08:44:37.078Z,934.12
2018-01-18T08:45:37.060Z,934.1
2018-01-18T08:46:37.041Z,933.98
2018-01-18T08:47:37.045Z,934.01
2018-01-18T08:48:37.007Z,933.81
2018-01-18T08:49:36.988Z,933.84
2018-01-18T08:50:36.971Z,933.83
2018-01-18T08:51:36.953Z,933.94
2018-01-18T08:52:36.934Z,933.67
2018-01-18T08:53:36.935Z,933.67
2018-01-18T08:54:36.899Z,933.77
2018-01-18T08:55:36.881Z,933.84
2018-01-18T08:56:36.863Z,933.71
2018-01-18T08:57:36.845Z,933.49
2018-01-18T08:58:36.839Z,933.55
2018-01-18T08:59:36.813Z,933.49
2018-01-18T09:00:36.793Z,933.52
2018-01-18T09:01:36.775Z,933.57
2018-01-18T09:02:36.756Z,933.57
2018-01-18T09:03:36.743Z,933.37
2018-01-18T09:04:36.727Z,933.3
2018-01-18T09:05:36.704Z,933.33
2018-01-18T09:06:36.686Z,933.44
2018-01-18T09:07:36.668Z,933.64
2018-01-18T09:08:36.651Z,933.65
2018-01-18T09:09:36.634Z,933.69
2018-01-18T09:10:36.613Z,933.65
2018-01-18T09:11:36.608Z,933.57
2018-01-18T09:12:36.580Z,933.55
2018-01-18T09:13:36.562Z,933.33
2018-01-18T09:14:36.554Z,933.5
2018-01-18T09:15:36.528Z,933.5
2018-01-18T09:16:36.509Z,933.52
2018-01-18T09:17:36.507Z,933.53
2018-01-18T09:18:36.475Z,933.62
2018-01-18T09:19:36.458Z,933.56
2018-01-18T09:20:36.440Z,933.79
2018-01-18T09:21:36.423Z,933.58
2018-01-18T09:22:36.405Z,933.33
2018-01-18T09:23:36.388Z,933.14
2018-01-18T09:24:36.370Z,933.51
2018-01-18T09:25:36.355Z,933.26
2018-01-18T09:26:36.336Z,932.97
2018-01-18T09:27:36.319Z,933.25
2018-01-18T09:28:36.301Z,933.23
2018-01-18T09:29:36.284Z,933.26
2018-01-18T09:30:36.268Z,933.24
2018-01-18T09:31:36.249Z,933.24
2018-01-18T09:32:36.233Z,933.13
2018-01-18T09:33:36.216Z,933.15
2018-01-18T09:34:36.198Z,933.18
2018-01-18T09:35:36.181Z,933.22
2018-01-18T09:36:36.164Z,932.82
2018-01-18T09:37:36.147Z,932.88
2018-01-18T09:38:36.130Z,932.82
2018-01-18T09:39:36.112Z,932.6
2018-01-18T09:40:36.096Z,932.63
2018-01-18T09:41:36.078Z,932.4
2018-01-18T09:42:36.061Z,932.44
2018-01-18T09:43:36.045Z,932.53
2018-01-18T09:44:36.027Z,932.57
2018-01-18T09:45:36.012Z,932.53
2018-01-18T09:46:35.991Z,932.61
2018-01-18T09:47:35.978Z,932.67
2018-01-18T09:48:35.963Z,932.85
2018-01-18T09:49:35.942Z,932.85
2018-01-18T09:50:35.931Z,932.6
2018-01-18T09:51:35.907Z,932.61
2018-01-18T09:52:35.900Z,932.63
2018-01-18T09:53:35.873Z,932.61
2018-01-18T09:54:35.856Z,932.52
2018-01-18T09:55:35.839Z,932.42
2018-01-18T09:56:35.821Z,932.25
2018-01-18T09:57:35.804Z,932.39
2018-01-18T09:58:35.788Z,932.57
2018-01-18T09:59:35.769Z,932.45
2018-01-18T10:00:35.754Z,932.58
2018-01-18T10:01:35.738Z,932.43
2018-01-18T10:02:35.718Z,932.61
2018-01-18T10:03:35.701Z,932.56
2018-01-18T10:04:35.683Z,932.32
2018-01-18T10:05:35.665Z,932.38
2018-01-18T10:06:35.649Z,932.31
2018-01-18T10:07:35.673Z,932.43
2018-01-18T10:08:35.613Z,932.22
2018-01-18T10:09:35.597Z,932.27
2018-01-18T10:10:35.580Z,932.38
2018-01-18T10:11:35.563Z,932.26
2018-01-18T10:12:35.546Z,932.25
2018-01-18T10:13:35.529Z,932.14
2018-01-18T10:14:35.526Z,932.18
2018-01-18T10:15:35.496Z,932.09
2018-01-18T10:16:35.480Z,932.13
2018-01-18T10:17:35.461Z,931.95
2018-01-18T10:18:35.444Z,931.91
2018-01-18T10:19:35.427Z,931.8
2018-01-18T10:20:35.415Z,931.77
2018-01-18T10:21:35.393Z,931.76
2018-01-18T10:22:35.376Z,931.82
2018-01-18T10:23:35.359Z,931.95
2018-01-18T10:24:35.343Z,931.76
2018-01-18T10:25:35.325Z,931.66
2018-01-18T10:26:35.308Z,931.55
2018-01-18T10:27:35.292Z,931.64
2018-01-18T10:28:35.295Z,931.55
2018-01-18T10:29:35.259Z,931.59
2018-01-18T10:30:35.241Z,931.54
2018-01-18T10:31:35.314Z,931.6
2018-01-18T10:32:35.210Z,931.36
2018-01-18T10:33:35.189Z,931.44
2018-01-18T10:34:35.171Z,931.42
2018-01-18T10:35:35.172Z,931.34
2018-01-18T10:36:35.139Z,931.33
2018-01-18T10:37:35.123Z,931.54
2018-01-18T10:38:35.105Z,931.59
2018-01-18T10:39:35.088Z,931.51
2018-01-18T10:40:35.072Z,931.34
2018-01-18T10:41:35.060Z,931.37
2018-01-18T10:42:35.039Z,931.22
2018-01-18T10:43:35.021Z,931.29
2018-01-18T10:44:35.052Z,931.29
2018-01-18T10:45:34.987Z,931.39
2018-01-18T10:46:34.971Z,931.2
2018-01-18T10:47:34.955Z,931.3
2018-01-18T10:48:34.937Z,931.2
2018-01-18T10:49:34.926Z,931.24
2018-01-18T10:50:35.123Z,931.23
2018-01-18T10:51:34.887Z,931.11
2018-01-18T10:52:34.871Z,931.03
2018-01-18T10:53:34.855Z,930.9
2018-01-18T10:54:34.836Z,931.06
2018-01-18T10:55:34.839Z,930.99
2018-01-18T10:56:34.834Z,930.85
2018-01-18T10:57:34.787Z,930.88
2018-01-18T10:58:34.778Z,930.87
2018-01-18T10:59:34.752Z,930.91
2018-01-18T11:00:34.737Z,930.92
2018-01-18T11:01:34.722Z,931
2018-01-18T11:02:34.708Z,930.81
2018-01-18T11:03:34.686Z,930.69
2018-01-18T11:04:34.671Z,930.73
2018-01-18T11:05:34.654Z,930.68
2018-01-18T11:06:34.637Z,930.66
2018-01-18T11:07:34.621Z,930.52
2018-01-18T11:08:34.605Z,930.61
2018-01-18T11:09:34.588Z,930.47
2018-01-18T11:10:34.571Z,930.53
2018-01-18T11:11:35.970Z,930.46
2018-01-18T11:12:34.539Z,930.44
2018-01-18T11:13:34.522Z,930.35
2018-01-18T11:14:34.506Z,930.54
2018-01-18T11:15:34.489Z,930.47
2018-01-18T11:16:34.473Z,930.22
2018-01-18T11:17:34.456Z,930.22
2018-01-18T11:18:34.440Z,930.19
2018-01-18T11:19:34.424Z,930.34
2018-01-18T11:20:34.407Z,930.25
2018-01-18T11:21:34.388Z,930.2
2018-01-18T11:22:34.374Z,930.02
2018-01-18T11:23:34.357Z,929.92
2018-01-18T11:24:34.341Z,930.08
2018-01-18T11:25:34.325Z,929.92
2018-01-18T11:26:34.323Z,930.15
2018-01-18T11:27:34.293Z,930.02
2018-01-18T11:28:34.275Z,930.05
2018-01-18T11:29:34.262Z,930.25
2018-01-18T11:30:34.243Z,930.04
2018-01-18T11:31:34.228Z,929.86
2018-01-18T11:32:34.209Z,929.8
2018-01-18T11:33:34.192Z,929.77
2018-01-18T11:34:46.912Z,930.02
2018-01-18T11:35:34.160Z,929.78
2018-01-18T11:36:34.141Z,929.93
2018-01-18T11:37:34.127Z,929.81
2018-01-18T11:38:34.109Z,929.92
2018-01-18T11:39:34.093Z,929.82
2018-01-18T11:40:34.076Z,929.89
2018-01-18T11:41:34.061Z,929.89
2018-01-18T11:42:34.043Z,929.77
2018-01-18T11:43:34.025Z,929.63
2018-01-18T11:44:34.010Z,929.81
2018-01-18T11:45:33.994Z,929.87
2018-01-18T11:46:33.976Z,929.86
2018-01-18T11:47:33.964Z,929.95
2018-01-18T11:48:33.945Z,929.97
2018-01-18T11:49:33.954Z,929.75
2018-01-18T11:50:33.912Z,929.7
2018-01-18T11:51:33.895Z,929.63
2018-01-18T11:52:33.878Z,929.7
2018-01-18T11:53:33.864Z,929.74
2018-01-18T11:54:33.846Z,929.63
2018-01-18T11:55:33.828Z,929.48
2018-01-18T11:56:33.813Z,929.67
2018-01-18T11:57:33.797Z,929.75
2018-01-18T11:58:33.779Z,929.6
2018-01-18T11:59:33.763Z,929.63
2018-01-18T12:00:33.748Z,929.59
2018-01-18T12:01:33.730Z,929.52
2018-01-18T12:02:33.712Z,929.44
2018-01-18T12:03:33.722Z,929.37
2018-01-18T12:04:33.680Z,929.45
2018-01-18T12:05:33.665Z,929.47
2018-01-18T12:06:33.646Z,929.47
2018-01-18T12:07:33.632Z,929.46
2018-01-18T12:08:33.614Z,929.36
2018-01-18T12:09:33.598Z,929.42
2018-01-18T12:10:33.580Z,929.34
2018-01-18T12:11:33.564Z,929.43
2018-01-18T12:12:33.551Z,929.41
2018-01-18T12:13:33.552Z,929.34
2018-01-18T12:14:33.514Z,929.28
2018-01-18T12:15:33.498Z,929.42
2018-01-18T12:16:33.498Z,929.48
2018-01-18T12:17:33.465Z,929.37
2018-01-18T12:18:33.448Z,929.49
2018-01-18T12:19:33.432Z,929.68
2018-01-18T12:20:33.414Z,929.38
2018-01-18T12:21:33.399Z,929.38
2018-01-18T12:22:33.383Z,929.45
2018-01-18T12:23:33.370Z,929.37
2018-01-18T12:24:33.348Z,929.53
2018-01-18T12:25:33.334Z,929.38
2018-01-18T12:26:33.317Z,929.39
2018-01-18T12:27:33.300Z,929.34
2018-01-18T12:28:33.283Z,929.32
2018-01-18T12:29:33.268Z,929.37
2018-01-18T12:30:33.250Z,929.21
2018-01-18T12:31:33.234Z,929.42